Terminal Aerodrome Forecast
Issued by NWS

Home | Current Version | Previous Version | Text Only | Print | Product List | Glossary On
Versions: 1 2 3 4 5 6 7 8 9 10 11 12 13 14 15 16 17 18 19 20 21 22
788
FTUS44 KLZK 192340
TAFLLQ
TAF
KLLQ 192340Z 2000/2024 23005KT P6SM SCT006
      TEMPO 2000/2004 5SM BR BKN006
     FM200400 VRB03KT 2SM BR OVC005
      TEMPO 2010/2014 1/4SM FG VV002
     FM201500 18006KT 5SM BR OVC008
     FM201800 22008KT P6SM BKN050=

USA.gov is the U.S. government's official web portal to all federal, state and local government web resources and services.